sensor_id;sensor_type;location;lat;lon;timestamp;pressure;altitude;pressure_sealevel;temperature;humidity
39411;BME280;26579;43.238;23.124;2023-05-11T00:00:50;97111.41;;;12.38;77.06
39411;BME280;26579;43.238;23.124;2023-05-11T00:03:16;97111.28;;;12.39;76.65
39411;BME280;26579;43.238;23.124;2023-05-11T00:05:42;97120.75;;;12.40;76.58
39411;BME280;26579;43.238;23.124;2023-05-11T00:08:11;97125.72;;;12.43;76.62
39411;BME280;26579;43.238;23.124;2023-05-11T00:10:37;97130.41;;;12.50;76.70
39411;BME280;26579;43.238;23.124;2023-05-11T00:13:02;97127.22;;;12.46;77.00
39411;BME280;26579;43.238;23.124;2023-05-11T00:15:28;97131.47;;;12.47;77.27
39411;BME280;26579;43.238;23.124;2023-05-11T00:17:54;97118.41;;;12.37;77.46
39411;BME280;26579;43.238;23.124;2023-05-11T00:20:19;97125.72;;;12.43;77.77
39411;BME280;26579;43.238;23.124;2023-05-11T00:22:45;97130.38;;;12.40;77.98
39411;BME280;26579;43.238;23.124;2023-05-11T00:25:11;97134.63;;;12.41;78.17
39411;BME280;26579;43.238;23.124;2023-05-11T00:27:37;97125.00;;;12.41;77.62
39411;BME280;26579;43.238;23.124;2023-05-11T00:30:02;97129.84;;;12.46;78.18
39411;BME280;26579;43.238;23.124;2023-05-11T00:32:28;97132.19;;;12.49;77.94
39411;BME280;26579;43.238;23.124;2023-05-11T00:34:54;97132.56;;;12.44;78.24
39411;BME280;26579;43.238;23.124;2023-05-11T00:37:19;97136.44;;;12.50;77.95
39411;BME280;26579;43.238;23.124;2023-05-11T00:39:45;97126.94;;;12.39;78.09
39411;BME280;26579;43.238;23.124;2023-05-11T00:42:11;97136.03;;;12.45;77.80
39411;BME280;26579;43.238;23.124;2023-05-11T00:44:36;97124.44;;;12.38;78.19
39411;BME280;26579;43.238;23.124;2023-05-11T00:47:02;97118.94;;;12.31;78.34
39411;BME280;26579;43.238;23.124;2023-05-11T00:49:28;97137.50;;;12.38;78.35
39411;BME280;26579;43.238;23.124;2023-05-11T00:51:54;97140.81;;;12.40;78.72
39411;BME280;26579;43.238;23.124;2023-05-11T00:54:20;97140.94;;;12.38;78.65
39411;BME280;26579;43.238;23.124;2023-05-11T00:56:45;97128.97;;;12.36;78.65
39411;BME280;26579;43.238;23.124;2023-05-11T00:59:11;97141.50;;;12.42;78.36
39411;BME280;26579;43.238;23.124;2023-05-11T01:01:38;97134.63;;;12.41;78.77
39411;BME280;26579;43.238;23.124;2023-05-11T01:04:04;97128.69;;;12.39;79.33
39411;BME280;26579;43.238;23.124;2023-05-11T01:06:31;97140.66;;;12.41;79.07
39411;BME280;26579;43.238;23.124;2023-05-11T01:09:23;97141.38;;;12.43;78.88
39411;BME280;26579;43.238;23.124;2023-05-11T01:14:51;97136.84;;;12.45;76.95
39411;BME280;26579;43.238;23.124;2023-05-11T01:17:22;97145.50;;;12.46;77.97
39411;BME280;26579;43.238;23.124;2023-05-11T01:19:57;97149.75;;;12.47;78.81
39411;BME280;26579;43.238;23.124;2023-05-11T01:22:36;97136.16;;;12.43;77.91
39411;BME280;26579;43.238;23.124;2023-05-11T01:28:24;97144.16;;;12.52;78.61
39411;BME280;26579;43.238;23.124;2023-05-11T01:30:54;97146.06;;;12.50;78.55
39411;BME280;26579;43.238;23.124;2023-05-11T01:33:30;97132.97;;;12.40;78.56
39411;BME280;26579;43.238;23.124;2023-05-11T01:36:05;97152.09;;;12.40;79.18
39411;BME280;26579;43.238;23.124;2023-05-11T01:38:36;97144.25;;;12.40;79.10
39411;BME280;26579;43.238;23.124;2023-05-11T01:41:12;97150.84;;;12.44;78.82
39411;BME280;26579;43.238;23.124;2023-05-11T01:43:39;97139.16;;;12.39;78.78
39411;BME280;26579;43.238;23.124;2023-05-11T01:46:08;97156.47;;;12.40;79.11
39411;BME280;26579;43.238;23.124;2023-05-11T01:48:38;97148.09;;;12.36;78.15
39411;BME280;26579;43.238;23.124;2023-05-11T01:51:06;97154.03;;;12.48;78.23
39411;BME280;26579;43.238;23.124;2023-05-11T01:53:36;97147.16;;;12.47;77.54
39411;BME280;26579;43.238;23.124;2023-05-11T01:56:02;97146.59;;;12.43;77.30
39411;BME280;26579;43.238;23.124;2023-05-11T01:58:29;97159.28;;;12.48;77.69
39411;BME280;26579;43.238;23.124;2023-05-11T02:00:56;97154.69;;;12.40;79.10
39411;BME280;26579;43.238;23.124;2023-05-11T02:03:23;97148.28;;;12.23;79.78
39411;BME280;26579;43.238;23.124;2023-05-11T02:05:50;97159.63;;;12.34;80.32
39411;BME280;26579;43.238;23.124;2023-05-11T02:08:18;97155.16;;;12.24;80.36
39411;BME280;26579;43.238;23.124;2023-05-11T02:10:45;97142.81;;;12.27;80.19
39411;BME280;26579;43.238;23.124;2023-05-11T02:13:12;97158.28;;;12.39;79.25
39411;BME280;26579;43.238;23.124;2023-05-11T02:15:41;97157.00;;;12.34;79.82
39411;BME280;26579;43.238;23.124;2023-05-11T02:18:11;97154.81;;;12.39;79.80
39411;BME280;26579;43.238;23.124;2023-05-11T02:20:42;97144.50;;;12.37;80.20
39411;BME280;26579;43.238;23.124;2023-05-11T02:23:09;97152.63;;;12.34;80.41
39411;BME280;26579;43.238;23.124;2023-05-11T02:25:37;97153.31;;;12.36;80.25
39411;BME280;26579;43.238;23.124;2023-05-11T02:28:04;97132.25;;;12.28;80.50
39411;BME280;26579;43.238;23.124;2023-05-11T02:30:31;97149.19;;;12.34;79.99
39411;BME280;26579;43.238;23.124;2023-05-11T02:33:00;97144.50;;;12.28;80.10
39411;BME280;26579;43.238;23.124;2023-05-11T02:35:32;97152.88;;;12.31;81.06
39411;BME280;26579;43.238;23.124;2023-05-11T02:38:00;97148.22;;;12.35;80.18
39411;BME280;26579;43.238;23.124;2023-05-11T02:40:31;97127.38;;;12.14;80.55
39411;BME280;26579;43.238;23.124;2023-05-11T02:43:09;97136.03;;;12.14;81.01
39411;BME280;26579;43.238;23.124;2023-05-11T02:45:38;97160.28;;;12.36;79.84
39411;BME280;26579;43.238;23.124;2023-05-11T02:48:10;97156.03;;;12.35;79.57
39411;BME280;26579;43.238;23.124;2023-05-11T02:50:38;97161.00;;;12.38;79.98
39411;BME280;26579;43.238;23.124;2023-05-11T02:53:10;97148.56;;;12.20;80.61
39411;BME280;26579;43.238;23.124;2023-05-11T02:55:40;97162.75;;;12.28;80.68
39411;BME280;26579;43.238;23.124;2023-05-11T02:58:07;97160.00;;;12.29;80.28
39411;BME280;26579;43.238;23.124;2023-05-11T03:00:33;97172.75;;;12.22;81.16
39411;BME280;26579;43.238;23.124;2023-05-11T03:02:59;97163.50;;;12.18;80.95
39411;BME280;26579;43.238;23.124;2023-05-11T03:05:26;97170.16;;;12.22;81.45
39411;BME280;26579;43.238;23.124;2023-05-11T03:07:54;97163.13;;;12.23;81.83
39411;BME280;26579;43.238;23.124;2023-05-11T03:10:23;97160.78;;;12.20;81.58
39411;BME280;26579;43.238;23.124;2023-05-11T03:12:49;97159.53;;;12.14;82.26
39411;BME280;26579;43.238;23.124;2023-05-11T03:15:16;97166.00;;;12.20;82.28
39411;BME280;26579;43.238;23.124;2023-05-11T03:17:45;97166.56;;;12.23;82.08
39411;BME280;26579;43.238;23.124;2023-05-11T03:20:14;97161.50;;;12.22;81.41
39411;BME280;26579;43.238;23.124;2023-05-11T03:22:41;97158.81;;;12.12;81.88
39411;BME280;26579;43.238;23.124;2023-05-11T03:25:08;97157.63;;;12.16;81.95
39411;BME280;26579;43.238;23.124;2023-05-11T03:27:36;97168.22;;;12.24;81.52
39411;BME280;26579;43.238;23.124;2023-05-11T03:30:08;97157.63;;;12.16;81.39
39411;BME280;26579;43.238;23.124;2023-05-11T03:32:38;97161.63;;;12.20;82.48
39411;BME280;26579;43.238;23.124;2023-05-11T03:35:05;97159.00;;;12.20;81.77
39411;BME280;26579;43.238;23.124;2023-05-11T03:37:32;97165.19;;;12.19;81.91
39411;BME280;26579;43.238;23.124;2023-05-11T03:40:00;97179.63;;;12.23;81.65
39411;BME280;26579;43.238;23.124;2023-05-11T03:42:35;97180.88;;;12.29;81.14
39411;BME280;26579;43.238;23.124;2023-05-11T03:45:04;97163.00;;;12.24;81.48
39411;BME280;26579;43.238;23.124;2023-05-11T03:47:32;97175.56;;;12.31;81.52
39411;BME280;26579;43.238;23.124;2023-05-11T03:50:00;97173.19;;;12.28;81.30
39411;BME280;26579;43.238;23.124;2023-05-11T03:52:26;97183.13;;;12.34;81.23
39411;BME280;26579;43.238;23.124;2023-05-11T03:54:52;97184.88;;;12.33;81.27
39411;BME280;26579;43.238;23.124;2023-05-11T03:57:18;97190.38;;;12.30;81.74
39411;BME280;26579;43.238;23.124;2023-05-11T03:59:44;97180.59;;;12.22;82.12
39411;BME280;26579;43.238;23.124;2023-05-11T04:02:10;97181.03;;;12.28;81.56
39411;BME280;26579;43.238;23.124;2023-05-11T04:04:35;97180.31;;;12.26;81.67
39411;BME280;26579;43.238;23.124;2023-05-11T04:07:01;97178.81;;;12.23;81.99
39411;BME280;26579;43.238;23.124;2023-05-11T04:09:27;97181.97;;;12.27;81.45
39411;BME280;26579;43.238;23.124;2023-05-11T04:11:52;97188.41;;;12.22;81.06
39411;BME280;26579;43.238;23.124;2023-05-11T04:14:18;97178.28;;;12.29;81.38
39411;BME280;26579;43.238;23.124;2023-05-11T04:16:44;97170.59;;;12.28;81.63
39411;BME280;26579;43.238;23.124;2023-05-11T04:19:09;97187.81;;;12.40;81.63
39411;BME280;26579;43.238;23.124;2023-05-11T04:21:35;97176.66;;;12.38;81.00
39411;BME280;26579;43.238;23.124;2023-05-11T04:24:02;97193.41;;;12.35;81.83
39411;BME280;26579;43.238;23.124;2023-05-11T04:26:27;97196.44;;;12.31;82.01
39411;BME280;26579;43.238;23.124;2023-05-11T04:28:53;97192.56;;;12.25;81.97
39411;BME280;26579;43.238;23.124;2023-05-11T04:31:19;97190.50;;;12.29;82.15
39411;BME280;26579;43.238;23.124;2023-05-11T04:33:45;97196.16;;;12.34;81.26
39411;BME280;26579;43.238;23.124;2023-05-11T04:36:11;97199.72;;;12.33;81.43
39411;BME280;26579;43.238;23.124;2023-05-11T04:38:37;97189.09;;;12.24;81.04
39411;BME280;26579;43.238;23.124;2023-05-11T04:41:05;97202.34;;;12.33;80.65
39411;BME280;26579;43.238;23.124;2023-05-11T04:43:32;97195.59;;;12.30;80.94
39411;BME280;26579;43.238;23.124;2023-05-11T04:45:58;97204.56;;;12.37;81.58
39411;BME280;26579;43.238;23.124;2023-05-11T04:48:26;97217.22;;;12.42;81.52
39411;BME280;26579;43.238;23.124;2023-05-11T04:50:53;97200.88;;;12.40;81.69
39411;BME280;26579;43.238;23.124;2023-05-11T04:53:21;97216.97;;;12.45;82.10
39411;BME280;26579;43.238;23.124;2023-05-11T04:55:46;97213.38;;;12.36;82.14
39411;BME280;26579;43.238;23.124;2023-05-11T04:58:12;97220.22;;;12.37;81.93
39411;BME280;26579;43.238;23.124;2023-05-11T05:00:38;97226.72;;;12.43;81.11
39411;BME280;26579;43.238;23.124;2023-05-11T05:03:04;97228.19;;;12.36;80.39
39411;BME280;26579;43.238;23.124;2023-05-11T05:05:29;97217.06;;;12.34;81.56
39411;BME280;26579;43.238;23.124;2023-05-11T05:07:55;97191.41;;;12.18;81.77
39411;BME280;26579;43.238;23.124;2023-05-11T05:10:21;97220.22;;;12.37;81.39
39411;BME280;26579;43.238;23.124;2023-05-11T05:12:47;97215.53;;;12.31;81.81
39411;BME280;26579;43.238;23.124;2023-05-11T05:15:13;97223.53;;;12.39;81.80
39411;BME280;26579;43.238;23.124;2023-05-11T05:17:39;97224.09;;;12.43;81.42
39411;BME280;26579;43.238;23.124;2023-05-11T05:20:06;97203.03;;;12.35;82.36
39411;BME280;26579;43.238;23.124;2023-05-11T05:22:32;97219.16;;;12.40;82.54
39411;BME280;26579;43.238;23.124;2023-05-11T05:24:59;97228.63;;;12.41;82.97
39411;BME280;26579;43.238;23.124;2023-05-11T05:27:25;97226.63;;;12.54;82.88
39411;BME280;26579;43.238;23.124;2023-05-11T05:29:52;97228.84;;;12.59;82.46
39411;BME280;26579;43.238;23.124;2023-05-11T05:32:18;97228.97;;;12.57;82.84
39411;BME280;26579;43.238;23.124;2023-05-11T05:34:44;97221.41;;;12.54;80.95
39411;BME280;26579;43.238;23.124;2023-05-11T05:37:09;97227.63;;;12.63;80.66
39411;BME280;26579;43.238;23.124;2023-05-11T05:39:35;97222.16;;;12.66;80.92
39411;BME280;26579;43.238;23.124;2023-05-11T05:42:01;97228.31;;;12.65;80.84
39411;BME280;26579;43.238;23.124;2023-05-11T05:44:27;97211.97;;;12.63;80.05
39411;BME280;26579;43.238;23.124;2023-05-11T05:46:53;97226.16;;;12.80;80.11
39411;BME280;26579;43.238;23.124;2023-05-11T05:49:19;97221.09;;;12.78;78.55
39411;BME280;26579;43.238;23.124;2023-05-11T05:51:46;97228.94;;;12.88;77.72
39411;BME280;26579;43.238;23.124;2023-05-11T05:54:11;97231.59;;;12.98;76.41
39411;BME280;26579;43.238;23.124;2023-05-11T05:56:37;97229.25;;;12.95;76.94
39411;BME280;26579;43.238;23.124;2023-05-11T05:59:05;97230.53;;;13.00;77.24
39411;BME280;26579;43.238;23.124;2023-05-11T06:01:31;97237.81;;;13.06;77.58
39411;BME280;26579;43.238;23.124;2023-05-11T06:03:57;97228.03;;;13.08;77.13
39411;BME280;26579;43.238;23.124;2023-05-11T06:06:24;97226.00;;;13.12;76.86
39411;BME280;26579;43.238;23.124;2023-05-11T06:08:49;97232.47;;;13.18;76.72
39411;BME280;26579;43.238;23.124;2023-05-11T06:11:15;97241.28;;;13.17;76.90
39411;BME280;26579;43.238;23.124;2023-05-11T06:13:41;97228.47;;;13.13;76.68
39411;BME280;26579;43.238;23.124;2023-05-11T06:16:06;97234.94;;;13.09;77.39
39411;BME280;26579;43.238;23.124;2023-05-11T06:18:33;97241.97;;;13.19;77.86
39411;BME280;26579;43.238;23.124;2023-05-11T06:21:01;97244.84;;;13.16;78.19
39411;BME280;26579;43.238;23.124;2023-05-11T06:23:29;97247.03;;;13.10;77.82
39411;BME280;26579;43.238;23.124;2023-05-11T06:25:55;97250.47;;;13.01;78.14
39411;BME280;26579;43.238;23.124;2023-05-11T06:28:21;97248.81;;;13.00;78.72
39411;BME280;26579;43.238;23.124;2023-05-11T06:30:48;97249.06;;;12.97;78.74
39411;BME280;26579;43.238;23.124;2023-05-11T06:33:13;97252.25;;;13.01;79.42
39411;BME280;26579;43.238;23.124;2023-05-11T06:35:39;97242.19;;;12.96;79.07
39411;BME280;26579;43.238;23.124;2023-05-11T06:38:07;97255.16;;;13.07;79.50
39411;BME280;26579;43.238;23.124;2023-05-11T06:40:35;97249.81;;;13.09;79.45
39411;BME280;26579;43.238;23.124;2023-05-11T06:43:00;97245.28;;;13.21;79.02
39411;BME280;26579;43.238;23.124;2023-05-11T06:45:43;97255.47;;;13.24;79.02
39411;BME280;26579;43.238;23.124;2023-05-11T06:48:09;97240.56;;;13.14;78.86
39411;BME280;26579;43.238;23.124;2023-05-11T06:50:35;97252.75;;;13.25;78.59
39411;BME280;26579;43.238;23.124;2023-05-11T06:53:00;97258.41;;;13.30;78.74
39411;BME280;26579;43.238;23.124;2023-05-11T06:55:28;97255.25;;;13.27;78.62
39411;BME280;26579;43.238;23.124;2023-05-11T06:57:54;97254.81;;;13.31;77.47
39411;BME280;26579;43.238;23.124;2023-05-11T07:00:19;97250.00;;;13.27;75.95
39411;BME280;26579;43.238;23.124;2023-05-11T07:02:45;97265.72;;;13.36;76.07
39411;BME280;26579;43.238;23.124;2023-05-11T07:05:11;97269.69;;;13.41;74.75
39411;BME280;26579;43.238;23.124;2023-05-11T07:07:37;97269.19;;;13.47;74.12
39411;BME280;26579;43.238;23.124;2023-05-11T07:10:04;97265.97;;;13.43;73.28
39411;BME280;26579;43.238;23.124;2023-05-11T07:12:30;97254.16;;;13.29;72.98
39411;BME280;26579;43.238;23.124;2023-05-11T07:14:56;97274.53;;;13.35;73.60
39411;BME280;26579;43.238;23.124;2023-05-11T07:17:21;97271.16;;;13.24;72.96
39411;BME280;26579;43.238;23.124;2023-05-11T07:19:47;97274.28;;;13.18;73.43
39411;BME280;26579;43.238;23.124;2023-05-11T07:22:13;97281.31;;;13.17;74.15
39411;BME280;26579;43.238;23.124;2023-05-11T07:24:38;97287.28;;;13.29;74.47
39411;BME280;26579;43.238;23.124;2023-05-11T07:27:04;97289.13;;;13.38;74.14
39411;BME280;26579;43.238;23.124;2023-05-11T07:29:29;97288.97;;;13.49;74.38
39411;BME280;26579;43.238;23.124;2023-05-11T07:31:55;97289.28;;;13.56;73.78
39411;BME280;26579;43.238;23.124;2023-05-11T07:34:21;97289.00;;;13.69;73.53
39411;BME280;26579;43.238;23.124;2023-05-11T07:36:46;97292.22;;;13.82;73.20
39411;BME280;26579;43.238;23.124;2023-05-11T07:39:12;97284.47;;;13.90;72.51
39411;BME280;26579;43.238;23.124;2023-05-11T07:41:38;97288.47;;;13.94;71.46
39411;BME280;26579;43.238;23.124;2023-05-11T07:44:04;97293.84;;;14.02;71.11
39411;BME280;26579;43.238;23.124;2023-05-11T07:46:30;97288.34;;;14.06;70.69
39411;BME280;26579;43.238;23.124;2023-05-11T07:48:56;97296.03;;;14.07;70.68
39411;BME280;26579;43.238;23.124;2023-05-11T07:51:22;97260.38;;;13.96;70.68
39411;BME280;26579;43.238;23.124;2023-05-11T07:53:48;97270.69;;;14.08;69.06
39411;BME280;26579;43.238;23.124;2023-05-11T07:56:13;97290.13;;;14.15;66.70
39411;BME280;26579;43.238;23.124;2023-05-11T07:58:39;97293.41;;;14.07;67.46
39411;BME280;26579;43.238;23.124;2023-05-11T08:01:05;97288.75;;;14.01;67.51
39411;BME280;26579;43.238;23.124;2023-05-11T08:03:32;97287.50;;;13.95;68.24
39411;BME280;26579;43.238;23.124;2023-05-11T08:05:57;97291.78;;;13.96;67.42
39411;BME280;26579;43.238;23.124;2023-05-11T08:08:23;97300.47;;;14.07;67.99
39411;BME280;26579;43.238;23.124;2023-05-11T08:10:49;97299.34;;;14.09;68.98
39411;BME280;26579;43.238;23.124;2023-05-11T08:13:15;97297.97;;;14.15;69.13
39411;BME280;26579;43.238;23.124;2023-05-11T08:15:40;97304.00;;;14.25;69.15
39411;BME280;26579;43.238;23.124;2023-05-11T08:18:06;97301.41;;;14.35;68.73
39411;BME280;26579;43.238;23.124;2023-05-11T08:20:32;97295.72;;;14.39;68.36
39411;BME280;26579;43.238;23.124;2023-05-11T08:22:57;97292.00;;;14.42;66.27
39411;BME280;26579;43.238;23.124;2023-05-11T08:25:23;97276.16;;;14.43;66.12
39411;BME280;26579;43.238;23.124;2023-05-11T08:27:48;97294.75;;;14.50;65.29
39411;BME280;26579;43.238;23.124;2023-05-11T08:30:14;97301.50;;;14.62;65.45
39411;BME280;26579;43.238;23.124;2023-05-11T08:32:40;97297.66;;;14.66;65.87
39411;BME280;26579;43.238;23.124;2023-05-11T08:35:06;97290.19;;;14.62;66.22
39411;BME280;26579;43.238;23.124;2023-05-11T08:37:31;97297.50;;;14.68;67.57
39411;BME280;26579;43.238;23.124;2023-05-11T08:39:57;97297.06;;;14.73;68.31
39411;BME280;26579;43.238;23.124;2023-05-11T08:42:23;97304.19;;;14.80;67.66
39411;BME280;26579;43.238;23.124;2023-05-11T08:44:54;97307.34;;;14.93;67.81
39411;BME280;26579;43.238;23.124;2023-05-11T08:47:20;97297.09;;;15.00;66.33
39411;BME280;26579;43.238;23.124;2023-05-11T08:49:46;97299.06;;;14.98;66.35
39411;BME280;26579;43.238;23.124;2023-05-11T08:52:13;97276.53;;;14.68;65.64
39411;BME280;26579;43.238;23.124;2023-05-11T08:54:39;97300.75;;;14.89;65.75
39411;BME280;26579;43.238;23.124;2023-05-11T08:57:05;97290.78;;;14.93;65.10
39411;BME280;26579;43.238;23.124;2023-05-11T08:59:31;97269.84;;;14.83;65.79
39411;BME280;26579;43.238;23.124;2023-05-11T09:01:57;97297.22;;;15.08;67.33
39411;BME280;26579;43.238;23.124;2023-05-11T09:04:24;97293.19;;;15.14;66.65
39411;BME280;26579;43.238;23.124;2023-05-11T09:06:50;97290.06;;;15.28;65.79
39411;BME280;26579;43.238;23.124;2023-05-11T09:09:16;97292.94;;;15.35;65.24
39411;BME280;26579;43.238;23.124;2023-05-11T09:11:43;97275.63;;;15.24;64.91
39411;BME280;26579;43.238;23.124;2023-05-11T09:14:08;97295.50;;;15.45;65.30
39411;BME280;26579;43.238;23.124;2023-05-11T09:16:34;97293.41;;;15.48;65.79
39411;BME280;26579;43.238;23.124;2023-05-11T09:19:00;97284.84;;;15.46;65.23
39411;BME280;26579;43.238;23.124;2023-05-11T09:21:26;97299.97;;;15.62;64.56
39411;BME280;26579;43.238;23.124;2023-05-11T09:23:55;97297.59;;;15.69;63.30
39411;BME280;26579;43.238;23.124;2023-05-11T09:26:21;97283.97;;;15.55;61.78
39411;BME280;26579;43.238;23.124;2023-05-11T09:28:51;97293.34;;;15.58;62.67
39411;BME280;26579;43.238;23.124;2023-05-11T09:31:40;97292.81;;;15.54;62.45
39411;BME280;26579;43.238;23.124;2023-05-11T09:36:41;97279.41;;;15.57;63.76
39411;BME280;26579;43.238;23.124;2023-05-11T09:39:07;97276.56;;;15.51;62.61
39411;BME280;26579;43.238;23.124;2023-05-11T09:41:33;97279.41;;;15.57;62.31
39411;BME280;26579;43.238;23.124;2023-05-11T09:46:37;97259.22;;;15.58;62.28
39411;BME280;26579;43.238;23.124;2023-05-11T09:49:03;97271.88;;;15.72;62.29
39411;BME280;26579;43.238;23.124;2023-05-11T09:51:31;97262.53;;;15.60;63.91
39411;BME280;26579;43.238;23.124;2023-05-11T09:53:58;97256.09;;;15.54;61.75
39411;BME280;26579;43.238;23.124;2023-05-11T09:56:43;97263.00;;;15.73;62.49
39411;BME280;26579;43.238;23.124;2023-05-11T09:59:08;97255.59;;;15.69;60.06
39411;BME280;26579;43.238;23.124;2023-05-11T10:01:34;97257.09;;;15.89;59.26
39411;BME280;26579;43.238;23.124;2023-05-11T10:04:01;97251.69;;;15.91;58.53
39411;BME280;26579;43.238;23.124;2023-05-11T10:06:27;97252.75;;;15.98;59.43
39411;BME280;26579;43.238;23.124;2023-05-11T10:09:08;97259.56;;;16.09;59.68
39411;BME280;26579;43.238;23.124;2023-05-11T10:11:33;97257.34;;;16.22;60.87
39411;BME280;26579;43.238;23.124;2023-05-11T10:13:59;97252.97;;;16.30;58.76
39411;BME280;26579;43.238;23.124;2023-05-11T10:16:25;97261.69;;;16.31;56.23
39411;BME280;26579;43.238;23.124;2023-05-11T10:18:51;97250.53;;;16.29;55.69
39411;BME280;26579;43.238;23.124;2023-05-11T10:21:17;97239.31;;;16.01;55.28
39411;BME280;26579;43.238;23.124;2023-05-11T10:23:43;97241.31;;;16.07;55.48
39411;BME280;26579;43.238;23.124;2023-05-11T10:26:09;97240.72;;;16.13;59.20
39411;BME280;26579;43.238;23.124;2023-05-11T10:28:35;97247.34;;;16.25;53.32
39411;BME280;26579;43.238;23.124;2023-05-11T10:31:02;97241.47;;;16.32;53.87
39411;BME280;26579;43.238;23.124;2023-05-11T10:33:28;97220.81;;;16.11;53.03
39411;BME280;26579;43.238;23.124;2023-05-11T10:35:56;97233.00;;;16.12;52.14
39411;BME280;26579;43.238;23.124;2023-05-11T10:38:23;97214.75;;;16.10;54.02
39411;BME280;26579;43.238;23.124;2023-05-11T10:40:50;97228.31;;;16.23;54.95
39411;BME280;26579;43.238;23.124;2023-05-11T10:43:48;97224.19;;;16.47;56.04
39411;BME280;26579;43.238;23.124;2023-05-11T10:49:21;97223.63;;;16.61;49.46
39411;BME280;26579;43.238;23.124;2023-05-11T10:54:39;97224.25;;;16.63;51.64
39411;BME280;26579;43.238;23.124;2023-05-11T10:57:23;97224.38;;;16.80;51.52
39411;BME280;26579;43.238;23.124;2023-05-11T11:02:29;97213.47;;;16.74;49.09
39411;BME280;26579;43.238;23.124;2023-05-11T11:04:55;97208.53;;;16.71;50.05
39411;BME280;26579;43.238;23.124;2023-05-11T11:07:21;97222.63;;;16.88;50.01
39411;BME280;26579;43.238;23.124;2023-05-11T11:12:23;97212.59;;;16.92;50.15
39411;BME280;26579;43.238;23.124;2023-05-11T11:17:23;97214.47;;;17.08;49.38
39411;BME280;26579;43.238;23.124;2023-05-11T11:19:49;97198.88;;;17.14;47.15
39411;BME280;26579;43.238;23.124;2023-05-11T11:25:00;97207.09;;;17.19;46.19
39411;BME280;26579;43.238;23.124;2023-05-11T11:30:25;97203.22;;;17.40;47.93
39411;BME280;26579;43.238;23.124;2023-05-11T11:32:53;97195.31;;;17.56;48.30
39411;BME280;26579;43.238;23.124;2023-05-11T11:38:07;97195.53;;;17.87;47.45
39411;BME280;26579;43.238;23.124;2023-05-11T11:40:44;97193.56;;;17.90;46.48
39411;BME280;26579;43.238;23.124;2023-05-11T11:43:11;97206.56;;;17.91;46.17
39411;BME280;26579;43.238;23.124;2023-05-11T11:45:38;97193.19;;;17.76;45.47
39411;BME280;26579;43.238;23.124;2023-05-11T11:48:15;97203.56;;;17.70;47.38
39411;BME280;26579;43.238;23.124;2023-05-11T11:50:43;97194.00;;;17.52;44.93
39411;BME280;26579;43.238;23.124;2023-05-11T11:56:01;97201.22;;;17.34;46.47
39411;BME280;26579;43.238;23.124;2023-05-11T12:01:17;97198.75;;;17.40;45.50
39411;BME280;26579;43.238;23.124;2023-05-11T12:03:43;97204.19;;;17.47;47.93
39411;BME280;26579;43.238;23.124;2023-05-11T12:06:10;97200.56;;;17.48;47.40
39411;BME280;26579;43.238;23.124;2023-05-11T12:08:37;97190.53;;;17.43;45.88
39411;BME280;26579;43.238;23.124;2023-05-11T12:11:04;97199.91;;;17.38;45.45
39411;BME280;26579;43.238;23.124;2023-05-11T12:13:31;97202.06;;;17.42;43.57
39411;BME280;26579;43.238;23.124;2023-05-11T12:16:13;97187.22;;;17.33;46.29
39411;BME280;26579;43.238;23.124;2023-05-11T12:18:41;97192.69;;;17.40;46.91
39411;BME280;26579;43.238;23.124;2023-05-11T12:21:18;97198.94;;;17.47;43.62
39411;BME280;26579;43.238;23.124;2023-05-11T12:23:57;97199.09;;;17.46;47.40
39411;BME280;26579;43.238;23.124;2023-05-11T12:26:25;97191.69;;;17.41;47.22
39411;BME280;26579;43.238;23.124;2023-05-11T12:29:04;97183.13;;;17.31;47.84
39411;BME280;26579;43.238;23.124;2023-05-11T12:31:37;97198.41;;;17.35;50.17
39411;BME280;26579;43.238;23.124;2023-05-11T12:34:03;97177.03;;;17.22;48.92
39411;BME280;26579;43.238;23.124;2023-05-11T12:36:29;97185.06;;;17.20;49.57
39411;BME280;26579;43.238;23.124;2023-05-11T12:38:55;97171.56;;;17.15;51.33
39411;BME280;26579;43.238;23.124;2023-05-11T12:41:22;97183.72;;;17.08;51.74
39411;BME280;26579;43.238;23.124;2023-05-11T12:43:52;97189.00;;;17.08;51.70
39411;BME280;26579;43.238;23.124;2023-05-11T12:46:19;97181.25;;;17.07;50.34
39411;BME280;26579;43.238;23.124;2023-05-11T12:48:45;97178.13;;;17.03;51.86
39411;BME280;26579;43.238;23.124;2023-05-11T12:51:12;97174.16;;;16.91;52.38
39411;BME280;26579;43.238;23.124;2023-05-11T12:53:39;97170.84;;;16.89;52.29
39411;BME280;26579;43.238;23.124;2023-05-11T12:56:05;97167.03;;;16.83;53.88
39411;BME280;26579;43.238;23.124;2023-05-11T12:58:38;97159.25;;;16.73;52.77
39411;BME280;26579;43.238;23.124;2023-05-11T13:01:05;97159.09;;;16.75;52.25
39411;BME280;26579;43.238;23.124;2023-05-11T13:03:32;97153.50;;;16.70;52.39
39411;BME280;26579;43.238;23.124;2023-05-11T13:06:11;97165.88;;;16.78;53.05
39411;BME280;26579;43.238;23.124;2023-05-11T13:08:38;97146.44;;;16.70;53.58
39411;BME280;26579;43.238;23.124;2023-05-11T13:11:18;97156.34;;;16.77;53.70
39411;BME280;26579;43.238;23.124;2023-05-11T13:13:43;97146.06;;;16.65;53.46
39411;BME280;26579;43.238;23.124;2023-05-11T13:16:09;97152.66;;;16.69;54.25
39411;BME280;26579;43.238;23.124;2023-05-11T13:18:35;97138.19;;;16.65;53.27
39411;BME280;26579;43.238;23.124;2023-05-11T13:21:05;97153.31;;;16.71;52.75
39411;BME280;26579;43.238;23.124;2023-05-11T13:23:31;97138.88;;;16.67;53.02
39411;BME280;26579;43.238;23.124;2023-05-11T13:25:57;97141.53;;;16.75;53.12
39411;BME280;26579;43.238;23.124;2023-05-11T13:28:23;97129.50;;;16.65;52.24
39411;BME280;26579;43.238;23.124;2023-05-11T13:30:49;97133.09;;;16.64;52.95